sensor_id;sensor_type;location;lat;lon;timestamp;P1;durP1;ratioP1;P2;durP2;ratioP2
15557;SDS011;7880;50.110;9.372;2022-10-16T00:01:12;2.7692307692307705;;;2.569230769230769;;
15557;SDS011;7880;50.110;9.372;2022-10-16T00:06:11;3.3307692307692305;;;3.030769230769231;;
15557;SDS011;7880;50.110;9.372;2022-10-16T00:11:11;2.7;;;2.5;;
15557;SDS011;7880;50.110;9.372;2022-10-16T00:16:13;2.630769230769231;;;2.430769230769231;;
15557;SDS011;7880;50.110;9.372;2022-10-16T00:21:18;3.0;;;2.5;;
15557;SDS011;7880;50.110;9.372;2022-10-16T00:26:23;3.869230769230768;;;2.430769230769231;;
15557;SDS011;7880;50.110;9.372;2022-10-16T00:31:29;3.6384615384615384;;;2.569230769230769;;
15557;SDS011;7880;50.110;9.372;2022-10-16T00:36:37;3.5;;;2.330769230769231;;
15557;SDS011;7880;50.110;9.372;2022-10-16T00:41:39;3.56923076923077;;;2.0;;
15557;SDS011;7880;50.110;9.372;2022-10-16T00:46:43;3.469230769230769;;;2.0;;
15557;SDS011;7880;50.110;9.372;2022-10-16T00:51:49;1.8692307692307695;;;1.5;;
15557;SDS011;7880;50.110;9.372;2022-10-16T00:56:53;1.4;;;1.3000000000000003;;
15557;SDS011;7880;50.110;9.372;2022-10-16T01:02:08;1.8000000000000005;;;1.638461538461538;;
15557;SDS011;7880;50.110;9.372;2022-10-16T01:07:04;1.6;;;1.5;;
15557;SDS011;7880;50.110;9.372;2022-10-16T01:12:12;2.3999999999999995;;;2.1999999999999997;;
15557;SDS011;7880;50.110;9.372;2022-10-16T01:17:25;1.6;;;1.5;;
15557;SDS011;7880;50.110;9.372;2022-10-16T01:22:30;1.5;;;1.4;;
15557;SDS011;7880;50.110;9.372;2022-10-16T01:26:24;1.6999999999999995;;;1.6;;
15557;SDS011;7880;50.110;9.372;2022-10-16T01:31:27;1.330769230769231;;;1.2307692307692308;;
15557;SDS011;7880;50.110;9.372;2022-10-16T01:36:31;1.8000000000000005;;;1.6999999999999995;;
15557;SDS011;7880;50.110;9.372;2022-10-16T01:41:36;1.469230769230769;;;1.3692307692307695;;
15557;SDS011;7880;50.110;9.372;2022-10-16T01:46:42;1.469230769230769;;;1.3692307692307695;;
15557;SDS011;7880;50.110;9.372;2022-10-16T01:51:49;1.4;;;1.3000000000000003;;
15557;SDS011;7880;50.110;9.372;2022-10-16T01:56:58;1.0999999999999999;;;1.0;;
15557;SDS011;7880;50.110;9.372;2022-10-16T02:01:59;3.100000000000001;;;1.0307692307692307;;
15557;SDS011;7880;50.110;9.372;2022-10-16T02:07:03;1.1999999999999997;;;1.0999999999999999;;
15557;SDS011;7880;50.110;9.372;2022-10-16T02:12:10;1.1999999999999997;;;0.9000000000000002;;
15557;SDS011;7880;50.110;9.372;2022-10-16T02:17:12;1.4;;;0.8;;
15557;SDS011;7880;50.110;9.372;2022-10-16T02:22:20;0.8;;;0.8;;
15557;SDS011;7880;50.110;9.372;2022-10-16T02:27:31;2.507692307692307;;;0.5999999999999999;;
15557;SDS011;7880;50.110;9.372;2022-10-16T02:32:28;0.6692307692307693;;;0.5999999999999999;;
15557;SDS011;7880;50.110;9.372;2022-10-16T02:37:27;1.3000000000000003;;;0.7;;
15557;SDS011;7880;50.110;9.372;2022-10-16T02:42:40;0.7307692307692311;;;0.7307692307692311;;
15557;SDS011;7880;50.110;9.372;2022-10-16T02:47:35;0.5999999999999999;;;0.5999999999999999;;
15557;SDS011;7880;50.110;9.372;2022-10-16T02:52:42;0.9000000000000002;;;0.7307692307692311;;
15557;SDS011;7880;50.110;9.372;2022-10-16T02:57:43;0.8;;;0.8;;
15557;SDS011;7880;50.110;9.372;2022-10-16T03:02:46;2.938461538461538;;;0.8;;
15557;SDS011;7880;50.110;9.372;2022-10-16T03:07:48;1.323076923076923;;;0.8;;
15557;SDS011;7880;50.110;9.372;2022-10-16T03:12:53;1.0;;;0.6307692307692307;;
15557;SDS011;7880;50.110;9.372;2022-10-16T03:18:09;0.8;;;0.8;;
15557;SDS011;7880;50.110;9.372;2022-10-16T03:23:04;0.9000000000000002;;;0.9000000000000002;;
15557;SDS011;7880;50.110;9.372;2022-10-16T03:28:09;2.269230769230769;;;0.7;;
15557;SDS011;7880;50.110;9.372;2022-10-16T03:33:16;1.469230769230769;;;0.8692307692307696;;
15557;SDS011;7880;50.110;9.372;2022-10-16T03:38:15;1.3692307692307695;;;0.9000000000000002;;
15557;SDS011;7880;50.110;9.372;2022-10-16T03:43:18;3.2692307692307705;;;1.1999999999999997;;
15557;SDS011;7880;50.110;9.372;2022-10-16T03:48:20;2.8692307692307684;;;1.6;;
15557;SDS011;7880;50.110;9.372;2022-10-16T03:53:25;2.1999999999999997;;;1.6999999999999995;;
15557;SDS011;7880;50.110;9.372;2022-10-16T03:58:26;3.938461538461538;;;1.8000000000000005;;
15557;SDS011;7880;50.110;9.372;2022-10-16T04:03:29;2.530769230769231;;;2.330769230769231;;
15557;SDS011;7880;50.110;9.372;2022-10-16T04:08:35;3.169230769230769;;;2.3999999999999995;;
15557;SDS011;7880;50.110;9.372;2022-10-16T04:13:36;4.361538461538462;;;3.600000000000001;;
15557;SDS011;7880;50.110;9.372;2022-10-16T04:19:02;2.546153846153847;;;2.3461538461538463;;
15557;SDS011;7880;50.110;9.372;2022-10-16T04:23:44;2.8692307692307684;;;2.6000000000000005;;
15557;SDS011;7880;50.110;9.372;2022-10-16T04:28:50;2.9615384615384617;;;2.661538461538462;;
15557;SDS011;7880;50.110;9.372;2022-10-16T04:33:54;2.230769230769231;;;2.1000000000000005;;
15557;SDS011;7880;50.110;9.372;2022-10-16T04:38:58;2.830769230769231;;;2.630769230769231;;
15557;SDS011;7880;50.110;9.372;2022-10-16T04:44:01;2.369230769230769;;;2.1999999999999997;;
15557;SDS011;7880;50.110;9.372;2022-10-16T04:49:06;2.569230769230769;;;2.1999999999999997;;
15557;SDS011;7880;50.110;9.372;2022-10-16T04:54:11;3.169230769230769;;;1.8000000000000005;;
15557;SDS011;7880;50.110;9.372;2022-10-16T04:59:15;2.7692307692307705;;;1.7692307692307692;;
15557;SDS011;7880;50.110;9.372;2022-10-16T05:04:19;2.1000000000000005;;;2.0;;
15557;SDS011;7880;50.110;9.372;2022-10-16T05:09:25;1.7307692307692308;;;1.6307692307692305;;
15557;SDS011;7880;50.110;9.372;2022-10-16T05:14:27;2.030769230769231;;;1.9307692307692308;;
15557;SDS011;7880;50.110;9.372;2022-10-16T05:19:32;2.3000000000000003;;;2.1000000000000005;;
15557;SDS011;7880;50.110;9.372;2022-10-16T05:24:39;3.399999999999999;;;3.100000000000001;;
15557;SDS011;7880;50.110;9.372;2022-10-16T05:29:42;5.000000000000001;;;3.2;;
15557;SDS011;7880;50.110;9.372;2022-10-16T05:34:47;3.607692307692307;;;2.7230769230769223;;
15557;SDS011;7880;50.110;9.372;2022-10-16T05:39:52;2.8692307692307684;;;2.3000000000000003;;
15557;SDS011;7880;50.110;9.372;2022-10-16T05:45:02;5.46923076923077;;;2.430769230769231;;
15557;SDS011;7880;50.110;9.372;2022-10-16T05:50:02;3.6384615384615384;;;1.8999999999999997;;
15557;SDS011;7880;50.110;9.372;2022-10-16T05:55:08;8.707692307692309;;;2.5;;
15557;SDS011;7880;50.110;9.372;2022-10-16T06:00:10;2.7692307692307705;;;2.1999999999999997;;
15557;SDS011;7880;50.110;9.372;2022-10-16T06:05:19;2.8692307692307684;;;2.0;;
15557;SDS011;7880;50.110;9.372;2022-10-16T06:10:18;2.1999999999999997;;;2.0;;
15557;SDS011;7880;50.110;9.372;2022-10-16T06:15:26;3.238461538461539;;;2.269230769230769;;
15557;SDS011;7880;50.110;9.372;2022-10-16T06:20:32;3.469230769230769;;;2.5;;
15557;SDS011;7880;50.110;9.372;2022-10-16T06:25:30;2.7692307692307705;;;1.8999999999999997;;
15557;SDS011;7880;50.110;9.372;2022-10-16T06:30:36;4.876923076923076;;;2.3999999999999995;;
15557;SDS011;7880;50.110;9.372;2022-10-16T06:35:36;4.846153846153848;;;2.530769230769231;;
15557;SDS011;7880;50.110;9.372;2022-10-16T06:40:38;4.269230769230769;;;2.3999999999999995;;
15557;SDS011;7880;50.110;9.372;2022-10-16T06:45:42;2.3999999999999995;;;2.1999999999999997;;
15557;SDS011;7880;50.110;9.372;2022-10-16T06:50:54;3.4615384615384617;;;2.1307692307692307;;
15557;SDS011;7880;50.110;9.372;2022-10-16T06:56:06;2.4384615384615387;;;1.7692307692307692;;
15557;SDS011;7880;50.110;9.372;2022-10-16T07:00:55;3.100000000000001;;;2.1000000000000005;;
15557;SDS011;7880;50.110;9.372;2022-10-16T07:06:02;2.1000000000000005;;;1.8000000000000005;;
15557;SDS011;7880;50.110;9.372;2022-10-16T07:11:04;2.8;;;1.8307692307692305;;
15557;SDS011;7880;50.110;9.372;2022-10-16T07:16:05;2.169230769230769;;;1.969230769230769;;
15557;SDS011;7880;50.110;9.372;2022-10-16T07:21:09;2.2692307692307696;;;2.06923076923077;;
15557;SDS011;7880;50.110;9.372;2022-10-16T07:26:11;3.969230769230769;;;2.030769230769231;;
15557;SDS011;7880;50.110;9.372;2022-10-16T07:31:15;2.269230769230769;;;2.0;;
15557;SDS011;7880;50.110;9.372;2022-10-16T07:36:23;4.438461538461538;;;1.8000000000000005;;
15557;SDS011;7880;50.110;9.372;2022-10-16T07:41:37;2.3000000000000003;;;2.1000000000000005;;
15557;SDS011;7880;50.110;9.372;2022-10-16T07:46:37;3.369230769230768;;;2.1999999999999997;;
15557;SDS011;7880;50.110;9.372;2022-10-16T07:51:39;4.607692307692308;;;2.269230769230769;;
15557;SDS011;7880;50.110;9.372;2022-10-16T07:56:42;2.5;;;2.061538461538462;;
15557;SDS011;7880;50.110;9.372;2022-10-16T08:01:49;3.2692307692307705;;;2.169230769230769;;
15557;SDS011;7880;50.110;9.372;2022-10-16T08:06:49;1.8999999999999997;;;1.8000000000000005;;
15557;SDS011;7880;50.110;9.372;2022-10-16T08:11:53;2.0;;;1.8999999999999997;;
15557;SDS011;7880;50.110;9.372;2022-10-16T08:16:59;3.369230769230768;;;1.8000000000000005;;
15557;SDS011;7880;50.110;9.372;2022-10-16T08:22:01;2.1000000000000005;;;1.8999999999999997;;
15557;SDS011;7880;50.110;9.372;2022-10-16T08:27:04;2.230769230769231;;;2.030769230769231;;
15557;SDS011;7880;50.110;9.372;2022-10-16T08:32:12;4.469230769230769;;;2.1307692307692307;;
15557;SDS011;7880;50.110;9.372;2022-10-16T08:37:11;4.538461538461538;;;2.0692307692307694;;
15557;SDS011;7880;50.110;9.372;2022-10-16T08:42:16;2.5;;;2.3000000000000003;;
15557;SDS011;7880;50.110;9.372;2022-10-16T08:47:20;2.3999999999999995;;;2.1999999999999997;;
15557;SDS011;7880;50.110;9.372;2022-10-16T08:52:22;2.3000000000000003;;;2.1000000000000005;;
15557;SDS011;7880;50.110;9.372;2022-10-16T08:57:27;5.607692307692309;;;1.8692307692307695;;
15557;SDS011;7880;50.110;9.372;2022-10-16T09:02:34;2.669230769230769;;;2.1000000000000005;;
15557;SDS011;7880;50.110;9.372;2022-10-16T09:07:35;10.792307692307691;;;3.061538461538462;;
15557;SDS011;7880;50.110;9.372;2022-10-16T09:12:39;7.307692307692306;;;2.8;;
15557;SDS011;7880;50.110;9.372;2022-10-16T09:17:50;3.7692307692307705;;;2.8;;
15557;SDS011;7880;50.110;9.372;2022-10-16T09:22:55;4.369230769230769;;;2.030769230769231;;
15557;SDS011;7880;50.110;9.372;2022-10-16T09:27:51;1.6;;;1.5;;
15557;SDS011;7880;50.110;9.372;2022-10-16T09:32:57;5.661538461538461;;;1.8538461538461541;;
15557;SDS011;7880;50.110;9.372;2022-10-16T09:37:54;2.7692307692307705;;;1.6;;
15557;SDS011;7880;50.110;9.372;2022-10-16T09:43:01;4.438461538461538;;;1.8000000000000005;;
15557;SDS011;7880;50.110;9.372;2022-10-16T09:48:01;4.338461538461538;;;2.0;;
15557;SDS011;7880;50.110;9.372;2022-10-16T09:53:08;1.9307692307692308;;;1.4;;
15557;SDS011;7880;50.110;9.372;2022-10-16T09:58:11;3.838461538461539;;;1.8000000000000005;;
15557;SDS011;7880;50.110;9.372;2022-10-16T10:03:10;2.0;;;1.6;;
15557;SDS011;7880;50.110;9.372;2022-10-16T10:08:14;2.3000000000000003;;;1.530769230769231;;
15557;SDS011;7880;50.110;9.372;2022-10-16T10:13:20;3.06923076923077;;;1.8999999999999997;;
15557;SDS011;7880;50.110;9.372;2022-10-16T10:18:20;1.6999999999999995;;;1.6;;
15557;SDS011;7880;50.110;9.372;2022-10-16T10:23:25;1.8692307692307695;;;1.5;;
15557;SDS011;7880;50.110;9.372;2022-10-16T10:28:34;2.169230769230769;;;1.3000000000000003;;
15557;SDS011;7880;50.110;9.372;2022-10-16T10:33:36;2.0692307692307694;;;1.5;;
15557;SDS011;7880;50.110;9.372;2022-10-16T10:38:46;2.7692307692307705;;;1.330769230769231;;
15557;SDS011;7880;50.110;9.372;2022-10-16T10:43:44;1.469230769230769;;;1.1999999999999997;;
15557;SDS011;7880;50.110;9.372;2022-10-16T10:48:51;2.0307692307692307;;;1.1999999999999997;;
15557;SDS011;7880;50.110;9.372;2022-10-16T10:53:55;2.0692307692307694;;;1.1999999999999997;;
15557;SDS011;7880;50.110;9.372;2022-10-16T10:59:09;3.0384615384615383;;;0.9000000000000002;;
15557;SDS011;7880;50.110;9.372;2022-10-16T11:04:16;1.2692307692307692;;;0.9000000000000002;;
15557;SDS011;7880;50.110;9.372;2022-10-16T11:09:15;1.0999999999999999;;;1.0;;
15557;SDS011;7880;50.110;9.372;2022-10-16T11:14:16;1.8000000000000005;;;1.4;;
15557;SDS011;7880;50.110;9.372;2022-10-16T11:19:22;1.6;;;1.5;;
15557;SDS011;7880;50.110;9.372;2022-10-16T11:24:27;1.8000000000000005;;;1.6999999999999995;;
15557;SDS011;7880;50.110;9.372;2022-10-16T11:29:28;1.1999999999999997;;;0.9307692307692309;;
15557;SDS011;7880;50.110;9.372;2022-10-16T11:34:44;1.3538461538461541;;;1.0538461538461539;;
15557;SDS011;7880;50.110;9.372;2022-10-16T11:39:49;2.1384615384615384;;;1.0;;
15557;SDS011;7880;50.110;9.372;2022-10-16T11:45:00;5.561538461538462;;;2.830769230769231;;
15557;SDS011;7880;50.110;9.372;2022-10-16T11:50:01;1.5;;;1.1999999999999997;;
15557;SDS011;7880;50.110;9.372;2022-10-16T11:55:05;1.1999999999999997;;;1.0999999999999999;;
15557;SDS011;7880;50.110;9.372;2022-10-16T12:00:24;2.0384615384615383;;;0.8692307692307696;;
15557;SDS011;7880;50.110;9.372;2022-10-16T12:05:18;3.1384615384615384;;;0.9307692307692309;;
15557;SDS011;7880;50.110;9.372;2022-10-16T12:10:20;1.5923076923076924;;;0.9000000000000002;;
15557;SDS011;7880;50.110;9.372;2022-10-16T12:15:23;1.1999999999999997;;;0.8;;
15557;SDS011;7880;50.110;9.372;2022-10-16T12:20:33;2.5;;;0.7307692307692311;;
15557;SDS011;7880;50.110;9.372;2022-10-16T12:25:31;1.330769230769231;;;1.0692307692307692;;
15557;SDS011;7880;50.110;9.372;2022-10-16T12:30:36;0.9692307692307693;;;0.7;;
15557;SDS011;7880;50.110;9.372;2022-10-16T12:35:43;1.0;;;0.9000000000000002;;
15557;SDS011;7880;50.110;9.372;2022-10-16T12:40:54;1.2461538461538464;;;0.7;;
15557;SDS011;7880;50.110;9.372;2022-10-16T12:45:59;0.9000000000000002;;;0.7;;
15557;SDS011;7880;50.110;9.372;2022-10-16T12:50:57;1.169230769230769;;;0.9000000000000002;;
15557;SDS011;7880;50.110;9.372;2022-10-16T12:56:15;1.969230769230769;;;1.0999999999999999;;
15557;SDS011;7880;50.110;9.372;2022-10-16T13:01:27;1.0;;;0.9000000000000002;;
15557;SDS011;7880;50.110;9.372;2022-10-16T13:06:20;1.3692307692307695;;;1.0;;
15557;SDS011;7880;50.110;9.372;2022-10-16T13:11:24;1.3000000000000003;;;1.1999999999999997;;
15557;SDS011;7880;50.110;9.372;2022-10-16T13:16:36;1.3000000000000003;;;1.1999999999999997;;
15557;SDS011;7880;50.110;9.372;2022-10-16T13:21:34;1.1307692307692305;;;1.0307692307692307;;
15557;SDS011;7880;50.110;9.372;2022-10-16T13:26:52;1.4;;;1.3000000000000003;;
15557;SDS011;7880;50.110;9.372;2022-10-16T13:31:44;1.4;;;1.0;;
15557;SDS011;7880;50.110;9.372;2022-10-16T13:36:50;1.4;;;1.0999999999999999;;
15557;SDS011;7880;50.110;9.372;2022-10-16T13:42:01;3.7999999999999994;;;1.0999999999999999;;
15557;SDS011;7880;50.110;9.372;2022-10-16T13:47:36;1.0307692307692307;;;0.9000000000000002;;
15557;SDS011;7880;50.110;9.372;2022-10-16T13:52:41;1.4;;;1.1999999999999997;;
15557;SDS011;7880;50.110;9.372;2022-10-16T13:57:46;2.5;;;1.0;;
15557;SDS011;7880;50.110;9.372;2022-10-16T14:02:53;3.6384615384615384;;;1.5;;
15557;SDS011;7880;50.110;9.372;2022-10-16T14:08:02;3.73846153846154;;;1.4615384615384615;;
15557;SDS011;7880;50.110;9.372;2022-10-16T14:13:03;1.5;;;1.3000000000000003;;
15557;SDS011;7880;50.110;9.372;2022-10-16T14:18:13;1.1999999999999997;;;1.0999999999999999;;
15557;SDS011;7880;50.110;9.372;2022-10-16T14:23:19;1.8000000000000005;;;1.4;;
15557;SDS011;7880;50.110;9.372;2022-10-16T14:28:20;2.269230769230769;;;1.3000000000000003;;
15557;SDS011;7880;50.110;9.372;2022-10-16T14:33:31;3.969230769230769;;;1.8999999999999997;;
15557;SDS011;7880;50.110;9.372;2022-10-16T14:38:28;4.26153846153846;;;3.76153846153846;;
15557;SDS011;7880;50.110;9.372;2022-10-16T14:43:34;1.6999999999999995;;;1.4;;
15557;SDS011;7880;50.110;9.372;2022-10-16T14:48:39;2.838461538461538;;;1.3000000000000003;;
15557;SDS011;7880;50.110;9.372;2022-10-16T14:53:45;7.10769230769231;;;4.438461538461538;;
15557;SDS011;7880;50.110;9.372;2022-10-16T14:58:50;13.60769230769231;;;8.400000000000002;;
15557;SDS011;7880;50.110;9.372;2022-10-16T15:03:55;9.038461538461538;;;4.299999999999999;;
15557;SDS011;7880;50.110;9.372;2022-10-16T15:09:05;7.923076923076923;;;6.799999999999998;;
15557;SDS011;7880;50.110;9.372;2022-10-16T15:14:05;6.707692307692307;;;3.2692307692307705;;
15557;SDS011;7880;50.110;9.372;2022-10-16T15:19:10;5.6692307692307695;;;5.0;;
15557;SDS011;7880;50.110;9.372;2022-10-16T15:24:19;5.369230769230768;;;4.869230769230769;;
15557;SDS011;7880;50.110;9.372;2022-10-16T15:29:19;6.938461538461538;;;4.569230769230769;;
15557;SDS011;7880;50.110;9.372;2022-10-16T15:34:24;8.26923076923077;;;7.469230769230771;;
15557;SDS011;7880;50.110;9.372;2022-10-16T15:39:29;6.669230769230769;;;6.06923076923077;;
15557;SDS011;7880;50.110;9.372;2022-10-16T15:44:33;7.507692307692308;;;6.06923076923077;;
15557;SDS011;7880;50.110;9.372;2022-10-16T15:49:38;3.638461538461539;;;3.3384615384615377;;
15557;SDS011;7880;50.110;9.372;2022-10-16T15:54:52;3.738461538461539;;;2.1999999999999997;;
15557;SDS011;7880;50.110;9.372;2022-10-16T15:59:47;3.338461538461539;;;2.0;;
15557;SDS011;7880;50.110;9.372;2022-10-16T16:04:52;4.507692307692308;;;2.1000000000000005;;
15557;SDS011;7880;50.110;9.372;2022-10-16T16:10:09;3.8307692307692305;;;2.3999999999999995;;
15557;SDS011;7880;50.110;9.372;2022-10-16T16:14:59;8.938461538461539;;;2.1999999999999997;;
15557;SDS011;7880;50.110;9.372;2022-10-16T16:20:05;2.169230769230769;;;1.969230769230769;;
15557;SDS011;7880;50.110;9.372;2022-10-16T16:25:09;2.246153846153846;;;1.6999999999999995;;
15557;SDS011;7880;50.110;9.372;2022-10-16T16:30:20;4.153846153846154;;;1.8999999999999997;;
15557;SDS011;7880;50.110;9.372;2022-10-16T16:35:19;1.6999999999999995;;;1.6;;
15557;SDS011;7880;50.110;9.372;2022-10-16T16:38:56;4.138461538461539;;;1.6;;
15557;SDS011;7880;50.110;9.372;2022-10-16T16:44:04;3.56923076923077;;;1.6692307692307695;;
15557;SDS011;7880;50.110;9.372;2022-10-16T16:49:06;4.007692307692308;;;1.5692307692307692;;
15557;SDS011;7880;50.110;9.372;2022-10-16T16:54:14;3.600000000000001;;;1.330769230769231;;
15557;SDS011;7880;50.110;9.372;2022-10-16T16:59:19;4.5;;;1.6;;
15557;SDS011;7880;50.110;9.372;2022-10-16T17:04:27;5.238461538461539;;;1.3615384615384616;;
15557;SDS011;7880;50.110;9.372;2022-10-16T17:09:34;4.853846153846154;;;1.8307692307692305;;
15557;SDS011;7880;50.110;9.372;2022-10-16T17:14:34;6.384615384615385;;;2.0;;
15557;SDS011;7880;50.110;9.372;2022-10-16T17:19:45;8.346153846153847;;;2.0;;
15557;SDS011;7880;50.110;9.372;2022-10-16T17:24:47;4.16923076923077;;;1.8999999999999997;;
15557;SDS011;7880;50.110;9.372;2022-10-16T17:30:03;5.253846153846155;;;2.230769230769231;;
15557;SDS011;7880;50.110;9.372;2022-10-16T17:34:59;4.0;;;2.0;;
15557;SDS011;7880;50.110;9.372;2022-10-16T17:40:03;3.969230769230769;;;2.1000000000000005;;
15557;SDS011;7880;50.110;9.372;2022-10-16T17:45:07;2.5;;;2.1999999999999997;;
15557;SDS011;7880;50.110;9.372;2022-10-16T17:50:12;3.169230769230769;;;1.6999999999999995;;
15557;SDS011;7880;50.110;9.372;2022-10-16T17:55:17;2.1999999999999997;;;1.6;;
15557;SDS011;7880;50.110;9.372;2022-10-16T18:00:24;1.6;;;1.5;;
15557;SDS011;7880;50.110;9.372;2022-10-16T18:05:29;4.469230769230769;;;1.8692307692307695;;
15557;SDS011;7880;50.110;9.372;2022-10-16T18:10:34;3.738461538461539;;;1.8307692307692305;;
15557;SDS011;7880;50.110;9.372;2022-10-16T18:15:39;4.692307692307694;;;1.6307692307692305;;
15557;SDS011;7880;50.110;9.372;2022-10-16T18:20:47;6.576923076923077;;;1.8000000000000005;;
15557;SDS011;7880;50.110;9.372;2022-10-16T18:25:50;2.5;;;1.6999999999999995;;
15557;SDS011;7880;50.110;9.372;2022-10-16T18:30:55;3.869230769230768;;;2.0;;
15557;SDS011;7880;50.110;9.372;2022-10-16T18:36:01;3.838461538461539;;;1.5;;
15557;SDS011;7880;50.110;9.372;2022-10-16T18:41:01;6.507692307692308;;;2.1000000000000005;;
15557;SDS011;7880;50.110;9.372;2022-10-16T18:46:07;6.815384615384615;;;1.7307692307692308;;
15557;SDS011;7880;50.110;9.372;2022-10-16T18:51:14;4.2384615384615385;;;1.8692307692307695;;
15557;SDS011;7880;50.110;9.372;2022-10-16T18:56:16;2.430769230769231;;;2.0;;
15557;SDS011;7880;50.110;9.372;2022-10-16T19:01:22;1.5;;;1.4;;
15557;SDS011;7880;50.110;9.372;2022-10-16T19:06:26;4.569230769230769;;;1.5;;
15557;SDS011;7880;50.110;9.372;2022-10-16T19:11:30;2.6307692307692303;;;2.0;;
15557;SDS011;7880;50.110;9.372;2022-10-16T19:16:34;2.3999999999999995;;;2.1999999999999997;;
15557;SDS011;7880;50.110;9.372;2022-10-16T19:21:39;3.838461538461539;;;1.6999999999999995;;
15557;SDS011;7880;50.110;9.372;2022-10-16T19:26:57;5.107692307692308;;;1.169230769230769;;
15557;SDS011;7880;50.110;9.372;2022-10-16T19:32:01;1.1999999999999997;;;1.0999999999999999;;
15557;SDS011;7880;50.110;9.372;2022-10-16T19:36:53;2.738461538461539;;;1.0;;
15557;SDS011;7880;50.110;9.372;2022-10-16T19:41:57;2.738461538461539;;;1.1999999999999997;;
15557;SDS011;7880;50.110;9.372;2022-10-16T19:47:05;3.738461538461539;;;1.0999999999999999;;
15557;SDS011;7880;50.110;9.372;2022-10-16T19:52:11;3.600000000000001;;;1.0999999999999999;;
15557;SDS011;7880;50.110;9.372;2022-10-16T19:57:16;1.3000000000000003;;;1.0999999999999999;;
15557;SDS011;7880;50.110;9.372;2022-10-16T20:02:21;1.1999999999999997;;;0.9000000000000002;;
15557;SDS011;7880;50.110;9.372;2022-10-16T20:07:30;6.5;;;2.93076923076923;;
15557;SDS011;7880;50.110;9.372;2022-10-16T20:12:31;4.607692307692308;;;1.4;;
15557;SDS011;7880;50.110;9.372;2022-10-16T20:17:37;2.7692307692307705;;;1.1307692307692305;;
15557;SDS011;7880;50.110;9.372;2022-10-16T20:22:49;1.0;;;0.9000000000000002;;
15557;SDS011;7880;50.110;9.372;2022-10-16T20:27:46;9.892307692307694;;;1.4;;
15557;SDS011;7880;50.110;9.372;2022-10-16T20:32:51;6.0076923076923086;;;2.469230769230769;;
15557;SDS011;7880;50.110;9.372;2022-10-16T20:37:55;1.3000000000000003;;;1.1999999999999997;;
15557;SDS011;7880;50.110;9.372;2022-10-16T20:43:02;2.984615384615384;;;1.2307692307692308;;
15557;SDS011;7880;50.110;9.372;2022-10-16T20:48:03;3.238461538461539;;;1.0;;
15557;SDS011;7880;50.110;9.372;2022-10-16T20:53:09;1.5692307692307692;;;1.1999999999999997;;
15557;SDS011;7880;50.110;9.372;2022-10-16T20:58:16;2.430769230769231;;;1.530769230769231;;
15557;SDS011;7880;50.110;9.372;2022-10-16T21:03:18;3.784615384615386;;;1.4307692307692308;;
15557;SDS011;7880;50.110;9.372;2022-10-16T21:08:20;1.4;;;1.3000000000000003;;
15557;SDS011;7880;50.110;9.372;2022-10-16T21:13:37;1.4;;;1.0999999999999999;;
15557;SDS011;7880;50.110;9.372;2022-10-16T21:18:30;1.8000000000000005;;;1.3000000000000003;;
15557;SDS011;7880;50.110;9.372;2022-10-16T21:23:35;2.269230769230769;;;1.4;;
15557;SDS011;7880;50.110;9.372;2022-10-16T21:28:50;1.5;;;1.1999999999999997;;
15557;SDS011;7880;50.110;9.372;2022-10-16T21:33:46;4.2384615384615385;;;1.6999999999999995;;
15557;SDS011;7880;50.110;9.372;2022-10-16T21:38:50;6.776923076923077;;;1.5692307692307692;;
15557;SDS011;7880;50.110;9.372;2022-10-16T21:43:09;2.1999999999999997;;;1.5461538461538464;;
15557;SDS011;7880;50.110;9.372;2022-10-16T21:48:14;2.269230769230769;;;1.6999999999999995;;
15557;SDS011;7880;50.110;9.372;2022-10-16T21:53:18;6.307692307692306;;;1.530769230769231;;
15557;SDS011;7880;50.110;9.372;2022-10-16T21:58:23;2.6384615384615384;;;1.8692307692307695;;
15557;SDS011;7880;50.110;9.372;2022-10-16T22:03:28;2.8;;;1.6999999999999995;;
15557;SDS011;7880;50.110;9.372;2022-10-16T22:08:38;1.969230769230769;;;1.6692307692307695;;
15557;SDS011;7880;50.110;9.372;2022-10-16T22:13:46;3.2615384615384624;;;2.0;;
15557;SDS011;7880;50.110;9.372;2022-10-16T22:18:46;4.138461538461539;;;1.8999999999999997;;
15557;SDS011;7880;50.110;9.372;2022-10-16T22:23:53;5.907692307692309;;;2.169230769230769;;
15557;SDS011;7880;50.110;9.372;2022-10-16T22:29:03;3.838461538461539;;;1.6692307692307695;;
15557;SDS011;7880;50.110;9.372;2022-10-16T22:34:04;1.969230769230769;;;1.6999999999999995;;
15557;SDS011;7880;50.110;9.372;2022-10-16T22:39:10;2.1000000000000005;;;1.8999999999999997;;
15557;SDS011;7880;50.110;9.372;2022-10-16T22:44:22;4.6000000000000005;;;2.3000000000000003;;
15557;SDS011;7880;50.110;9.372;2022-10-16T22:49:26;2.7692307692307705;;;2.1999999999999997;;
15557;SDS011;7880;50.110;9.372;2022-10-16T22:54:23;3.938461538461538;;;2.269230769230769;;
15557;SDS011;7880;50.110;9.372;2022-10-16T22:59:29;5.930769230769231;;;2.3999999999999995;;
15557;SDS011;7880;50.110;9.372;2022-10-16T23:04:35;3.369230769230768;;;2.1999999999999997;;
15557;SDS011;7880;50.110;9.372;2022-10-16T23:09:41;2.1923076923076925;;;1.9307692307692308;;
15557;SDS011;7880;50.110;9.372;2022-10-16T23:14:49;2.8;;;2.5;;
15557;SDS011;7880;50.110;9.372;2022-10-16T23:19:55;7.56923076923077;;;2.3000000000000003;;
15557;SDS011;7880;50.110;9.372;2022-10-16T23:25:05;13.953846153846156;;;2.7;;